Time;durP1;ratioP1;P1;durP2;ratioP2;P2;SDS_P1;SDS_P2;PMS_P1;PMS_P2;Temp;Humidity;BMP_temperature;BMP_pressure;BME280_temperature;BME280_humidity;BME280_pressure;Samples;Min_cycle;Max_cycle;Signal;HPM_P1;HPM_P2
2023/08/19 00:00:26;;;;;;;13.18;12.18;;;;;;;19.58;100.00;99434.94;5081761;28;20264;-82
2023/08/19 00:02:56;;;;;;;12.93;11.95;;;;;;;19.50;100.00;99436.38;5086090;28;20275;-84
2023/08/19 00:05:24;;;;;;;13.52;12.60;;;;;;;19.49;100.00;99442.06;5093083;28;20202;-82
2023/08/19 00:07:51;;;;;;;13.25;12.35;;;;;;;19.47;100.00;99452.41;5096748;28;20200;-81
2023/08/19 00:10:19;;;;;;;13.35;12.35;;;;;;;19.44;100.00;99448.34;5093684;28;20208;-84
2023/08/19 00:12:47;;;;;;;13.45;12.45;;;;;;;19.46;100.00;99442.63;5093756;28;20205;-83
2023/08/19 00:15:14;;;;;;;12.82;11.93;;;;;;;19.45;100.00;99441.84;5107986;28;20279;-81
2023/08/19 00:17:42;;;;;;;13.68;12.52;;;;;;;19.49;100.00;99439.38;5102378;28;20207;-80
2023/08/19 00:20:11;;;;;;;13.07;12.07;;;;;;;19.46;100.00;99426.31;5088131;28;20192;-81
2023/08/19 00:22:38;;;;;;;13.30;12.30;;;;;;;19.47;100.00;99433.38;5098771;28;20191;-82
2023/08/19 00:25:06;;;;;;;13.07;12.07;;;;;;;19.46;100.00;99431.75;5096328;28;20192;-84
2023/08/19 00:27:33;;;;;;;12.52;11.52;;;;;;;19.43;100.00;99437.72;5089849;28;20188;-83
2023/08/19 00:30:00;;;;;;;12.98;11.88;;;;;;;19.41;100.00;99432.56;5103157;28;20209;-83
2023/08/19 00:32:28;;;;;;;12.57;11.63;;;;;;;19.40;100.00;99439.13;5097430;28;20627;-82
2023/08/19 00:34:55;;;;;;;12.82;11.85;;;;;;;19.38;100.00;99444.00;5087921;28;20501;-82
2023/08/19 00:37:23;;;;;;;13.43;12.43;;;;;;;19.35;100.00;99444.59;5093763;28;20205;-81
2023/08/19 00:39:51;;;;;;;12.80;11.85;;;;;;;19.32;100.00;99443.22;5093983;28;20188;-82
2023/08/19 00:42:18;;;;;;;13.00;12.10;;;;;;;19.32;100.00;99437.78;5099031;28;20196;-82
2023/08/19 00:44:45;;;;;;;13.05;12.15;;;;;;;19.31;100.00;99441.63;5098505;28;20230;-82
2023/08/19 00:47:13;;;;;;;12.80;11.80;;;;;;;19.28;100.00;99444.88;5092507;28;20512;-81
2023/08/19 00:49:42;;;;;;;13.77;12.47;;;;;;;19.29;100.00;99451.13;5101903;28;20693;-81
2023/08/19 00:52:10;;;;;;;12.73;11.73;;;;;;;19.27;100.00;99443.25;5072521;28;20549;-81
2023/08/19 00:54:38;;;;;;;13.00;12.00;;;;;;;19.27;100.00;99439.75;5092029;28;20229;-82
2023/08/19 00:57:08;;;;;;;13.00;12.10;;;;;;;19.26;100.00;99444.38;5066309;28;20193;-82
2023/08/19 00:59:36;;;;;;;13.40;12.30;;;;;;;19.25;100.00;99444.63;5071899;28;20683;-81
2023/08/19 01:02:04;;;;;;;12.90;12.00;;;;;;;19.25;100.00;99450.06;5083523;28;20571;-84
2023/08/19 01:04:33;;;;;;;12.40;11.50;;;;;;;19.21;100.00;99447.13;5086393;28;20229;-82
2023/08/19 01:07:22;;;;;;;13.25;12.15;;;;;;;19.15;100.00;99459.09;5090657;28;20234;-81
2023/08/19 01:10:03;;;;;;;13.30;12.30;;;;;;;19.10;100.00;99459.09;5097070;28;20229;-82
2023/08/19 01:12:39;;;;;;;13.38;12.25;;;;;;;19.05;100.00;99450.16;5076859;28;20200;-82
2023/08/19 01:15:17;;;;;;;13.20;12.20;;;;;;;19.02;100.00;99456.97;5078444;28;20207;-83
2023/08/19 01:17:48;;;;;;;13.67;12.57;;;;;;;18.90;100.00;99443.72;5079554;28;20197;-82
2023/08/19 01:20:18;;;;;;;12.90;11.90;;;;;;;18.87;100.00;99443.47;5071575;28;20201;-82
2023/08/19 01:23:02;;;;;;;13.43;12.40;;;;;;;18.83;100.00;99435.09;5091632;28;20204;-82
2023/08/19 01:25:32;;;;;;;13.60;12.57;;;;;;;18.82;100.00;99433.44;5093128;28;20294;-83
2023/08/19 01:28:03;;;;;;;13.80;12.80;;;;;;;18.81;100.00;99439.16;5089161;28;20186;-83
2023/08/19 01:30:33;;;;;;;14.10;13.00;;;;;;;18.84;100.00;99436.72;5076014;28;20224;-83
2023/08/19 01:33:03;;;;;;;13.80;12.70;;;;;;;18.86;100.00;99437.22;5088680;28;20258;-82
2023/08/19 01:35:35;;;;;;;13.57;12.57;;;;;;;18.83;100.00;99436.97;5084870;28;20215;-82
2023/08/19 01:38:10;;;;;;;13.27;12.37;;;;;;;18.84;100.00;99438.59;5093049;28;20192;-83
2023/08/19 01:40:39;;;;;;;13.90;12.80;;;;;;;18.79;100.00;99436.72;5058542;28;20202;-82
2023/08/19 01:43:10;;;;;;;14.57;13.37;;;;;;;18.79;100.00;99441.34;5092367;28;20270;-82
2023/08/19 01:45:38;;;;;;;14.23;13.07;;;;;;;18.76;100.00;99456.25;5094001;28;20190;-82
2023/08/19 01:48:08;;;;;;;13.87;12.77;;;;;;;18.76;100.00;99447.31;5086932;28;20238;-82
2023/08/19 01:50:36;;;;;;;14.93;13.57;;;;;;;18.74;100.00;99457.63;5103871;28;20228;-84
2023/08/19 01:53:03;;;;;;;15.33;13.97;;;;;;;18.70;100.00;99462.00;5098289;28;20672;-83
2023/08/19 01:55:31;;;;;;;15.00;13.70;;;;;;;18.65;100.00;99459.31;5098174;28;20674;-81
2023/08/19 01:57:58;;;;;;;13.83;12.67;;;;;;;18.61;100.00;99466.38;5097494;28;20198;-82
2023/08/19 02:00:25;;;;;;;14.47;13.27;;;;;;;18.59;100.00;99465.81;5073249;28;20204;-83
2023/08/19 02:02:52;;;;;;;14.70;13.33;;;;;;;18.53;100.00;99465.03;5081011;28;20192;-85
2023/08/19 02:05:21;;;;;;;13.80;12.80;;;;;;;18.49;100.00;99456.59;5091619;28;20270;-84
2023/08/19 02:07:50;;;;;;;13.83;12.83;;;;;;;18.48;100.00;99456.84;5095006;28;20572;-84
2023/08/19 02:10:18;;;;;;;13.87;12.67;;;;;;;18.49;100.00;99455.78;5091477;28;20208;-82
2023/08/19 02:12:46;;;;;;;14.30;13.13;;;;;;;18.45;100.00;99460.13;5101491;28;20661;-84
2023/08/19 02:15:14;;;;;;;14.73;13.53;;;;;;;18.41;100.00;99459.88;5084449;28;20221;-83
2023/08/19 02:17:42;;;;;;;14.03;12.93;;;;;;;18.41;100.00;99465.31;5088221;28;20255;-83
2023/08/19 02:20:11;;;;;;;15.20;14.00;;;;;;;18.39;100.00;99467.47;5098334;27;20616;-83
2023/08/19 02:22:39;;;;;;;14.93;13.83;;;;;;;18.36;100.00;99472.63;5079245;28;20683;-83
2023/08/19 02:25:07;;;;;;;14.07;13.07;;;;;;;18.34;100.00;99482.94;5095799;28;20205;-83
2023/08/19 02:27:37;;;;;;;14.10;13.10;;;;;;;18.32;100.00;99474.28;5096069;28;20593;-83
2023/08/19 02:30:06;;;;;;;15.17;13.97;;;;;;;18.27;100.00;99488.66;5111056;28;20213;-85
2023/08/19 02:32:34;;;;;;;15.37;14.17;;;;;;;18.26;100.00;99488.91;5100516;28;20705;-83
2023/08/19 02:35:02;;;;;;;14.73;13.63;;;;;;;18.22;100.00;99488.66;5092410;28;20713;-83
2023/08/19 02:37:29;;;;;;;14.47;13.37;;;;;;;18.21;100.00;99489.72;5091294;28;20233;-83
2023/08/19 02:39:58;;;;;;;14.00;13.00;;;;;;;18.21;100.00;99495.16;5080309;28;20608;-85
2023/08/19 02:42:26;;;;;;;14.30;13.10;;;;;;;18.20;100.00;99501.66;5099999;28;20222;-85
2023/08/19 02:44:53;;;;;;;14.33;13.13;;;;;;;18.20;100.00;99490.81;5101494;28;20617;-85
2023/08/19 02:47:22;;;;;;;14.53;13.43;;;;;;;18.20;100.00;99496.22;5090478;28;20232;-85
2023/08/19 02:49:50;;;;;;;14.53;13.43;;;;;;;18.20;100.00;99485.38;5071334;28;20211;-83
2023/08/19 02:52:18;;;;;;;14.07;13.07;;;;;;;18.19;100.00;99485.69;5100638;28;20295;-85
2023/08/19 02:54:47;;;;;;;15.00;13.87;;;;;;;18.11;100.00;99489.72;5097650;28;20203;-85
2023/08/19 02:57:14;;;;;;;15.20;14.07;;;;;;;18.03;100.00;99482.97;5080457;28;20241;-85
2023/08/19 02:59:42;;;;;;;13.77;12.77;;;;;;;18.01;100.00;99489.72;5080586;28;20222;-85
2023/08/19 03:02:09;;;;;;;15.13;13.93;;;;;;;18.01;100.00;99493.25;5091488;28;20186;-85
2023/08/19 03:04:37;;;;;;;14.50;13.43;;;;;;;18.00;100.00;99486.22;5060341;28;20193;-85
2023/08/19 03:07:05;;;;;;;14.90;13.80;;;;;;;18.01;100.00;99476.19;5088583;28;20201;-86
2023/08/19 03:09:33;;;;;;;14.70;13.60;;;;;;;18.03;100.00;99474.84;5095897;28;20214;-85
2023/08/19 03:12:01;;;;;;;15.20;14.00;;;;;;;18.03;100.00;99474.03;5095792;28;20195;-85
2023/08/19 03:14:28;;;;;;;15.00;13.90;;;;;;;17.98;100.00;99476.72;5074696;28;20228;-85
2023/08/19 03:16:55;;;;;;;15.80;14.63;;;;;;;17.95;100.00;99488.94;5074680;28;20194;-85
2023/08/19 03:19:22;;;;;;;15.37;14.07;;;;;;;17.97;100.00;99494.06;5076231;28;20212;-85
2023/08/19 03:21:50;;;;;;;15.20;13.87;;;;;;;17.95;100.00;99498.97;5099725;28;20653;-85
2023/08/19 03:24:18;;;;;;;15.93;14.63;;;;;;;17.89;100.00;99500.03;5060821;28;20285;-85
2023/08/19 03:26:46;;;;;;;16.00;14.90;;;;;;;17.82;100.00;99499.50;5112406;28;20662;-84
2023/08/19 03:29:13;;;;;;;15.23;14.03;;;;;;;17.79;100.00;99506.25;5086395;28;20196;-85
2023/08/19 03:31:41;;;;;;;15.80;14.60;;;;;;;17.76;100.00;99500.56;5071867;28;20645;-85
2023/08/19 03:34:08;;;;;;;16.10;14.80;;;;;;;17.73;100.00;99499.19;5064015;28;20693;-85
2023/08/19 03:36:36;;;;;;;15.27;14.13;;;;;;;17.67;100.00;99492.16;5094724;28;20556;-85
2023/08/19 03:39:05;;;;;;;15.77;14.47;;;;;;;17.64;100.00;99500.81;5089343;28;20214;-85
2023/08/19 03:41:35;;;;;;;16.20;15.00;;;;;;;17.61;100.00;99504.06;5111442;28;20191;-85
2023/08/19 03:44:03;;;;;;;16.30;14.97;;;;;;;17.60;100.00;99500.53;5077873;28;20191;-86
2023/08/19 03:46:30;;;;;;;15.67;14.47;;;;;;;17.62;100.00;99507.59;5092906;28;20671;-86
2023/08/19 03:48:58;;;;;;;15.70;14.50;;;;;;;17.58;100.00;99510.00;5069350;28;20198;-86
2023/08/19 03:51:26;;;;;;;15.63;14.50;;;;;;;17.59;100.00;99508.94;5097142;28;20215;-85
2023/08/19 03:53:54;;;;;;;15.87;14.47;;;;;;;17.57;100.00;99506.47;5079338;28;20201;-85
2023/08/19 03:56:22;;;;;;;15.17;14.03;;;;;;;17.59;100.00;99492.69;5079434;28;20209;-87
2023/08/19 03:58:50;;;;;;;15.37;14.10;;;;;;;17.59;100.00;99489.97;5105329;28;20217;-85
2023/08/19 04:01:19;;;;;;;15.50;14.27;;;;;;;17.55;100.00;99488.84;5086334;28;20296;-86
2023/08/19 04:03:47;;;;;;;14.27;13.17;;;;;;;17.56;100.00;99485.88;5088720;28;20195;-85
2023/08/19 04:06:16;;;;;;;16.47;15.17;;;;;;;17.59;100.00;99487.25;5079076;28;20229;-85
2023/08/19 04:08:43;;;;;;;16.33;14.93;;;;;;;17.56;100.00;99493.19;5103489;28;20190;-86
2023/08/19 04:11:11;;;;;;;15.70;14.40;;;;;;;17.57;100.00;99489.41;5077148;28;20217;-85
2023/08/19 04:13:41;;;;;;;15.07;13.97;;;;;;;17.60;100.00;99489.72;5093559;28;20271;-85
2023/08/19 04:16:10;;;;;;;15.73;14.43;;;;;;;17.63;100.00;99485.66;5093592;28;20197;-85
2023/08/19 04:18:39;;;;;;;15.67;14.43;;;;;;;17.66;100.00;99481.59;5086362;28;20196;-86
2023/08/19 04:21:09;;;;;;;15.53;14.37;;;;;;;17.70;100.00;99480.78;5076663;28;20218;-85
2023/08/19 04:23:36;;;;;;;15.57;14.37;;;;;;;17.76;100.00;99487.03;5067060;28;20667;-87
2023/08/19 04:26:05;;;;;;;15.30;14.10;;;;;;;17.80;100.00;99478.09;5065162;28;20256;-88
2023/08/19 04:28:32;;;;;;;15.90;14.43;;;;;;;17.81;100.00;99476.19;5085776;28;20195;-85
2023/08/19 04:31:05;;;;;;;15.30;14.20;;;;;;;17.82;100.00;99480.53;5089157;28;20230;-86
2023/08/19 04:33:38;;;;;;;15.90;14.60;;;;;;;17.83;100.00;99480.25;5082919;28;20237;-85
2023/08/19 04:36:07;;;;;;;15.97;14.80;;;;;;;17.85;100.00;99472.66;5064797;28;20569;-85
2023/08/19 04:38:34;;;;;;;16.73;15.43;;;;;;;17.89;100.00;99468.34;5098145;28;20202;-86
2023/08/19 04:41:04;;;;;;;15.60;14.40;;;;;;;17.96;100.00;99468.06;5067114;28;20674;-85
2023/08/19 04:43:37;;;;;;;15.40;14.03;;;;;;;17.99;100.00;99475.66;5086534;28;20203;-85
2023/08/19 04:46:05;;;;;;;16.43;15.10;;;;;;;18.06;100.00;99478.88;5083045;28;20269;-85
2023/08/19 04:48:33;;;;;;;15.57;14.23;;;;;;;18.13;100.00;99479.44;5074778;28;20253;-86
2023/08/19 04:51:01;;;;;;;16.03;14.77;;;;;;;18.14;100.00;99474.84;5079882;28;20306;-86
2023/08/19 04:53:30;;;;;;;16.80;15.40;;;;;;;18.18;100.00;99490.28;5096072;28;20199;-85
2023/08/19 04:56:04;;;;;;;15.63;14.43;;;;;;;18.23;100.00;99500.31;5058018;28;20207;-85
2023/08/19 04:58:34;;;;;;;16.83;15.53;;;;;;;18.27;100.00;99504.09;5112534;28;20193;-85
2023/08/19 05:01:02;;;;;;;16.10;15.00;;;;;;;18.34;100.00;99501.91;5090645;28;20299;-86
2023/08/19 05:03:33;;;;;;;15.93;14.73;;;;;;;18.37;100.00;99496.78;5060458;28;20200;-85
2023/08/19 05:06:00;;;;;;;15.80;14.60;;;;;;;18.43;100.00;99505.69;5076264;28;20193;-85
2023/08/19 05:08:36;;;;;;;16.30;15.10;;;;;;;18.52;100.00;99516.81;5077635;28;20611;-85
2023/08/19 05:11:03;;;;;;;16.07;14.97;;;;;;;18.60;100.00;99521.72;5092831;28;20249;-85
2023/08/19 05:13:32;;;;;;;17.77;16.27;;;;;;;18.67;100.00;99522.22;5072761;28;20243;-85
2023/08/19 05:15:59;;;;;;;15.93;14.73;;;;;;;18.75;100.00;99525.22;5066611;28;20188;-85
2023/08/19 05:18:28;;;;;;;16.90;15.60;;;;;;;18.83;100.00;99531.97;5083004;28;20190;-85
2023/08/19 05:20:55;;;;;;;16.50;15.30;;;;;;;18.95;100.00;99531.66;5092472;28;20232;-87
2023/08/19 05:23:22;;;;;;;16.10;14.90;;;;;;;19.06;100.00;99536.78;5080793;28;20194;-85
2023/08/19 05:25:50;;;;;;;15.93;14.63;;;;;;;19.24;100.00;99529.91;5062375;28;20286;-85
2023/08/19 05:28:18;;;;;;;15.87;14.67;;;;;;;19.37;100.00;99537.47;5075453;28;20198;-85
2023/08/19 05:30:47;;;;;;;17.30;15.80;;;;;;;19.52;100.00;99531.16;5092303;28;20206;-83
2023/08/19 05:33:15;;;;;;;15.47;14.27;;;;;;;19.71;100.00;99537.59;5058169;28;20303;-83
2023/08/19 05:35:42;;;;;;;16.30;14.67;;;;;;;19.92;100.00;99541.00;5098761;28;20199;-83
2023/08/19 05:38:10;;;;;;;15.47;14.37;;;;;;;20.07;100.00;99543.56;5087737;28;20196;-83
2023/08/19 05:40:37;;;;;;;15.37;13.97;;;;;;;20.23;100.00;99532.31;5104893;28;20195;-83
2023/08/19 05:43:05;;;;;;;15.10;13.90;;;;;;;20.41;100.00;99547.13;5097347;28;20568;-83
2023/08/19 05:45:33;;;;;;;15.50;14.20;;;;;;;20.54;100.00;99548.38;5075533;28;20196;-82
2023/08/19 05:48:01;;;;;;;16.40;15.10;;;;;;;20.65;100.00;99550.72;5091564;28;20280;-83
2023/08/19 05:50:28;;;;;;;15.68;14.45;;;;;;;20.79;100.00;99559.03;5073863;28;20285;-83
2023/08/19 05:52:56;;;;;;;15.10;13.90;;;;;;;20.90;100.00;99565.97;5096043;28;20204;-86
2023/08/19 05:55:23;;;;;;;14.38;13.20;;;;;;;21.03;100.00;99562.59;5092882;28;20680;-83
2023/08/19 05:57:51;;;;;;;14.00;13.00;;;;;;;21.18;100.00;99569.81;5080508;28;20281;-84
2023/08/19 06:00:18;;;;;;;14.48;13.27;;;;;;;21.30;100.00;99574.81;5086339;28;20221;-83
2023/08/19 06:02:46;;;;;;;14.43;13.15;;;;;;;21.43;100.00;99566.75;5071576;28;20235;-83
2023/08/19 06:05:14;;;;;;;14.40;13.30;;;;;;;21.57;100.00;99574.19;5101881;28;20200;-83
2023/08/19 06:07:42;;;;;;;14.30;13.23;;;;;;;21.72;100.00;99579.47;5093693;28;20235;-83
2023/08/19 06:10:09;;;;;;;13.93;12.93;;;;;;;21.84;100.00;99585.28;5102355;28;20191;-83
2023/08/19 06:12:40;;;;;;;14.05;13.00;;;;;;;21.91;100.00;99575.63;5096757;28;20279;-82
2023/08/19 06:15:08;;;;;;;14.90;13.68;;;;;;;21.98;100.00;99580.72;5093288;28;20203;-82
2023/08/19 06:17:36;;;;;;;14.25;13.15;;;;;;;22.11;100.00;99577.28;5096775;28;20203;-82
2023/08/19 06:20:04;;;;;;;14.07;12.98;;;;;;;22.17;100.00;99580.72;5093015;28;20188;-81
2023/08/19 06:22:31;;;;;;;14.80;13.70;;;;;;;22.27;100.00;99589.56;5075206;28;20184;-82
2023/08/19 06:24:58;;;;;;;14.77;13.60;;;;;;;22.42;100.00;99591.25;5092904;28;20195;-81
2023/08/19 06:27:26;;;;;;;14.65;13.65;;;;;;;22.54;100.00;99601.69;5075138;28;20267;-82
2023/08/19 06:29:53;;;;;;;14.90;13.70;;;;;;;22.59;100.00;99591.50;5075034;28;20201;-82
2023/08/19 06:32:21;;;;;;;14.52;13.23;;;;;;;22.73;100.00;99595.09;5091310;28;20209;-82
2023/08/19 06:34:49;;;;;;;13.90;12.85;;;;;;;22.84;100.00;99587.53;5074953;28;20168;-81
2023/08/19 06:37:19;;;;;;;14.10;12.93;;;;;;;23.01;100.00;99586.94;5091890;28;20648;-82
2023/08/19 06:39:49;;;;;;;14.23;13.07;;;;;;;23.08;100.00;99581.91;5096246;28;20190;-82
2023/08/19 06:42:18;;;;;;;13.95;12.85;;;;;;;23.11;100.00;99578.56;5103737;28;20200;-82
2023/08/19 06:44:50;;;;;;;14.63;13.60;;;;;;;23.25;100.00;99580.19;5096115;28;20206;-82
2023/08/19 06:47:23;;;;;;;14.77;13.68;;;;;;;23.31;100.00;99580.88;5109113;28;20264;-81
2023/08/19 06:49:51;;;;;;;14.77;13.68;;;;;;;23.29;100.00;99580.38;5081215;28;20195;-81
2023/08/19 06:52:19;;;;;;;14.82;13.63;;;;;;;23.36;100.00;99571.78;5080491;28;20206;-81
2023/08/19 06:54:48;;;;;;;14.73;13.73;;;;;;;23.41;100.00;99580.69;5109084;28;20200;-81
2023/08/19 06:57:25;;;;;;;14.75;13.65;;;;;;;23.49;100.00;99576.44;5094762;28;20654;-80
2023/08/19 07:00:03;;;;;;;14.93;13.82;;;;;;;23.61;100.00;99579.47;5106840;28;20202;-81
2023/08/19 07:02:35;;;;;;;14.52;13.13;;;;;;;23.71;100.00;99584.72;5095740;28;20194;-83
2023/08/19 07:05:14;;;;;;;14.65;13.55;;;;;;;23.83;100.00;99592.41;5093728;28;20250;-80
2023/08/19 07:07:48;;;;;;;14.70;13.60;;;;;;;23.93;100.00;99592.19;5072450;28;20198;-80
2023/08/19 07:10:20;;;;;;;14.57;13.48;;;;;;;24.02;100.00;99598.53;5079386;28;20220;-80
2023/08/19 07:12:49;;;;;;;15.20;14.10;;;;;;;24.07;100.00;99592.94;5087861;28;20218;-83
2023/08/19 07:15:17;;;;;;;14.38;13.38;;;;;;;24.18;100.00;99602.53;5108192;28;20194;-83
2023/08/19 07:17:47;;;;;;;14.50;13.50;;;;;;;24.20;100.00;99596.78;5095730;28;20191;-80
2023/08/19 07:20:17;;;;;;;14.77;13.57;;;;;;;24.30;100.00;99600.09;5094345;28;20198;-82
2023/08/19 07:22:47;;;;;;;14.57;13.38;;;;;;;24.38;100.00;99601.25;5103378;28;20200;-82
2023/08/19 07:25:16;;;;;;;13.38;12.35;;;;;;;24.51;100.00;99606.66;5092522;28;20195;-82
2023/08/19 07:27:45;;;;;;;13.77;12.73;;;;;;;24.61;100.00;99602.88;5092222;28;20205;-80
2023/08/19 07:30:14;;;;;;;13.52;12.48;;;;;;;24.72;100.00;99615.19;5097879;28;20354;-80
2023/08/19 07:32:42;;;;;;;13.68;12.60;;;;;;;24.81;100.00;99620.72;5097936;28;20609;-80
2023/08/19 07:35:10;;;;;;;13.55;12.55;;;;;;;24.92;100.00;99624.81;5103395;28;20660;-80
2023/08/19 07:37:38;;;;;;;14.10;12.85;;;;;;;24.99;100.00;99617.78;5092978;28;20188;-81
2023/08/19 07:40:08;;;;;;;13.98;12.98;;;;;;;25.10;100.00;99618.34;5098413;28;20204;-81
2023/08/19 07:42:35;;;;;;;14.15;13.07;;;;;;;25.16;100.00;99614.31;5094847;28;20196;-80
2023/08/19 07:45:05;;;;;;;13.63;12.57;;;;;;;25.30;100.00;99616.94;5084718;28;20272;-81
2023/08/19 07:47:32;;;;;;;12.82;11.80;;;;;;;25.42;100.00;99619.91;5092979;28;20227;-80
2023/08/19 07:50:01;;;;;;;12.60;11.75;;;;;;;25.57;100.00;99618.69;5090115;28;20207;-80
2023/08/19 07:52:29;;;;;;;13.30;12.40;;;;;;;25.70;100.00;99615.81;5090926;28;20241;-82
2023/08/19 07:54:57;;;;;;;12.52;11.73;;;;;;;25.80;100.00;99618.25;5093012;28;20290;-82
2023/08/19 07:57:25;;;;;;;12.30;11.30;;;;;;;25.92;100.00;99616.81;5101113;28;20687;-81
2023/08/19 07:59:52;;;;;;;11.50;10.70;;;;;;;26.07;100.00;99627.34;5085852;28;20288;-82
2023/08/19 08:02:19;;;;;;;11.25;10.45;;;;;;;26.23;100.00;99631.25;5080411;28;20258;-83
2023/08/19 08:04:46;;;;;;;11.43;10.43;;;;;;;26.38;100.00;99633.50;5115170;27;20195;-81
2023/08/19 08:07:13;;;;;;;11.38;10.57;;;;;;;26.52;100.00;99622.34;5090734;28;20200;-84
2023/08/19 08:09:45;;;;;;;11.70;10.73;;;;;;;26.61;100.00;99632.19;5086326;28;20281;-81
2023/08/19 08:12:13;;;;;;;11.43;10.60;;;;;;;26.79;100.00;99641.22;5102818;28;20211;-81
2023/08/19 08:14:41;;;;;;;11.50;10.70;;;;;;;26.82;100.00;99631.50;5101159;28;20223;-80
2023/08/19 08:17:08;;;;;;;11.77;10.88;;;;;;;26.55;100.00;99627.22;5089693;28;20199;-80
2023/08/19 08:19:35;;;;;;;11.43;10.60;;;;;;;26.64;100.00;99634.28;5101333;28;20261;-81
2023/08/19 08:22:03;;;;;;;11.18;10.38;;;;;;;26.83;100.00;99630.38;5089131;28;20188;-82
2023/08/19 08:24:33;;;;;;;11.13;10.20;;;;;;;27.01;100.00;99632.78;5105416;28;20188;-82
2023/08/19 08:27:01;;;;;;;10.80;9.90;;;;;;;27.13;100.00;99632.91;5106774;28;20196;-81
2023/08/19 08:29:28;;;;;;;10.75;9.85;;;;;;;27.32;100.00;99640.75;5095039;28;20184;-82
2023/08/19 08:31:55;;;;;;;11.50;10.60;;;;;;;27.48;100.00;99639.09;5098791;28;20216;-81
2023/08/19 08:34:22;;;;;;;11.15;10.35;;;;;;;27.54;100.00;99642.47;5105851;28;20255;-81
2023/08/19 08:36:50;;;;;;;11.35;10.65;;;;;;;27.67;100.00;99635.13;5100651;28;20547;-79
2023/08/19 08:39:18;;;;;;;11.25;10.38;;;;;;;27.72;100.00;99640.41;5086396;28;20206;-81
2023/08/19 08:41:45;;;;;;;10.95;10.07;;;;;;;27.78;100.00;99639.91;5101309;28;20210;-82
2023/08/19 08:44:14;;;;;;;10.80;10.10;;;;;;;27.84;100.00;99648.78;5086324;28;20200;-81
2023/08/19 08:46:44;;;;;;;11.85;10.85;;;;;;;27.94;100.00;99640.94;5092735;28;20212;-81
2023/08/19 08:49:12;;;;;;;11.43;10.43;;;;;;;28.03;100.00;99640.88;5092392;28;20274;-82
2023/08/19 08:51:40;;;;;;;11.82;10.75;;;;;;;28.06;100.00;99639.41;5087049;28;20209;-81
2023/08/19 08:54:08;;;;;;;11.10;10.00;;;;;;;28.24;100.00;99635.41;5099205;28;20264;-82
2023/08/19 08:56:35;;;;;;;12.02;11.10;;;;;;;28.29;100.00;99632.44;5108683;28;20184;-81
2023/08/19 08:59:03;;;;;;;11.73;10.80;;;;;;;28.32;100.00;99634.53;5101215;28;20256;-79
2023/08/19 09:01:32;;;;;;;12.07;10.85;;;;;;;28.44;100.00;99632.63;5097930;27;20196;-83
2023/08/19 09:04:04;;;;;;;11.95;10.75;;;;;;;28.45;100.00;99623.22;5097675;28;20214;-82
2023/08/19 09:06:32;;;;;;;10.85;9.85;;;;;;;28.40;100.00;99631.72;5092293;28;20193;-81
2023/08/19 09:09:02;;;;;;;10.63;9.73;;;;;;;28.46;100.00;99637.81;5091960;28;20197;-81
2023/08/19 09:11:33;;;;;;;11.05;10.02;;;;;;;28.49;100.00;99634.38;5102246;28;20200;-81
2023/08/19 09:14:16;;;;;;;11.02;10.23;;;;;;;28.60;100.00;99629.25;5099643;28;20262;-81
2023/08/19 09:16:43;;;;;;;10.88;10.00;;;;;;;28.75;100.00;99632.19;5099544;28;20196;-82
2023/08/19 09:19:10;;;;;;;11.32;10.43;;;;;;;28.81;100.00;99630.84;5106252;28;20563;-81
2023/08/19 09:21:37;;;;;;;11.27;10.43;;;;;;;28.88;100.00;99633.06;5094164;28;20681;-81
2023/08/19 09:24:06;;;;;;;10.85;9.70;;;;;;;28.84;100.00;99624.63;5102421;28;20195;-82
2023/08/19 09:26:34;;;;;;;10.65;9.88;;;;;;;28.63;100.00;99629.38;5085916;28;20287;-82
2023/08/19 09:29:01;;;;;;;11.48;10.60;;;;;;;28.60;100.00;99637.53;5083854;28;20201;-81
2023/08/19 09:31:32;;;;;;;10.60;9.80;;;;;;;28.47;100.00;99636.66;5093714;28;20215;-81
2023/08/19 09:34:00;;;;;;;10.80;10.00;;;;;;;28.84;100.00;99635.66;5096106;28;20597;-81
2023/08/19 09:36:28;;;;;;;10.52;9.73;;;;;;;29.00;100.00;99635.03;5065548;28;20202;-82
2023/08/19 09:38:59;;;;;;;10.85;9.95;;;;;;;29.15;100.00;99631.63;5107559;28;20286;-82
2023/08/19 09:41:33;;;;;;;10.68;9.88;;;;;;;29.41;100.00;99623.84;5106086;28;20411;-82
2023/08/19 09:44:00;;;;;;;10.30;9.55;;;;;;;29.21;100.00;99625.50;5091767;28;20210;-81
2023/08/19 09:46:34;;;;;;;10.77;9.88;;;;;;;29.19;100.00;99632.53;5059406;28;20193;-82
2023/08/19 09:49:03;;;;;;;10.05;9.13;;;;;;;29.62;100.00;99632.81;5094480;28;20726;-82
2023/08/19 09:51:31;;;;;;;10.02;9.23;;;;;;;29.81;100.00;99628.66;5100228;28;20233;-81
2023/08/19 09:54:09;;;;;;;10.68;9.98;;;;;;;29.77;100.00;99622.22;5094625;28;20250;-82
2023/08/19 09:56:37;;;;;;;10.65;9.80;;;;;;;29.37;100.00;99620.16;5088326;28;20291;-81
2023/08/19 09:59:06;;;;;;;11.27;10.27;;;;;;;29.10;100.00;99620.81;5096754;28;20271;-81
2023/08/19 10:01:35;;;;;;;10.43;9.65;;;;;;;29.51;100.00;99622.56;5081247;28;20207;-82
2023/08/19 10:04:04;;;;;;;10.68;9.68;;;;;;;29.74;100.00;99621.75;5091486;28;20200;-81
2023/08/19 10:06:34;;;;;;;9.50;8.65;;;;;;;29.94;100.00;99622.00;5092516;28;20227;-81
2023/08/19 10:09:05;;;;;;;9.95;9.07;;;;;;;29.77;100.00;99612.78;5091875;28;20822;-80
2023/08/19 10:11:34;;;;;;;9.07;8.38;;;;;;;29.64;100.00;99619.47;5090608;28;20199;-80
2023/08/19 10:14:04;;;;;;;9.98;9.18;;;;;;;29.47;100.00;99622.47;5089863;28;20204;-81
2023/08/19 10:16:33;;;;;;;10.05;9.35;;;;;;;29.35;100.00;99621.66;5090945;28;20204;-80
2023/08/19 10:19:01;;;;;;;10.10;9.38;;;;;;;29.25;100.00;99622.91;5098947;28;20219;-81
2023/08/19 10:21:31;;;;;;;10.43;9.70;;;;;;;29.47;100.00;99625.22;5100879;28;20196;-81
2023/08/19 10:24:00;;;;;;;10.57;9.60;;;;;;;29.91;100.00;99628.22;5105227;28;20215;-83
2023/08/19 10:26:27;;;;;;;10.25;9.45;;;;;;;30.11;100.00;99630.00;5071800;28;20577;-81
2023/08/19 10:29:06;;;;;;;9.48;8.77;;;;;;;30.60;100.00;99634.25;5104790;28;20192;-80
2023/08/19 10:31:35;;;;;;;8.93;8.13;;;;;;;30.98;100.00;99632.91;5100775;28;20191;-81
2023/08/19 10:34:29;;;;;;;9.82;8.93;;;;;;;31.23;100.00;99622.47;5095978;28;20262;-80
2023/08/19 10:37:10;;;;;;;10.32;9.32;;;;;;;31.30;100.00;99625.44;5101161;28;20646;-80
2023/08/19 10:39:38;;;;;;;10.00;9.20;;;;;;;31.55;100.00;99628.81;5102289;28;20653;-79
2023/08/19 10:42:08;;;;;;;9.25;8.55;;;;;;;31.68;100.00;99628.38;5088938;28;20197;-81
2023/08/19 10:44:37;;;;;;;9.88;9.05;;;;;;;31.86;100.00;99621.28;5094233;28;20188;-82
2023/08/19 10:47:14;;;;;;;10.10;9.30;;;;;;;31.86;100.00;99621.28;5088453;28;20295;-80
2023/08/19 10:49:46;;;;;;;11.52;8.82;;;;;;;31.34;100.00;99616.06;5103644;28;20202;-79
2023/08/19 10:52:20;;;;;;;9.52;8.82;;;;;;;30.90;100.00;99611.72;5102452;28;20219;-81
2023/08/19 10:54:48;;;;;;;9.05;8.35;;;;;;;30.78;100.00;99606.28;5078670;28;20314;-81
2023/08/19 10:57:25;;;;;;;8.77;8.07;;;;;;;30.86;100.00;99608.88;5091957;28;20193;-81
2023/08/19 10:59:58;;;;;;;9.02;8.30;;;;;;;30.87;100.00;99604.16;5094541;28;20224;-80
2023/08/19 11:02:27;;;;;;;9.35;8.55;;;;;;;30.96;100.00;99600.06;5070405;28;20671;-80
2023/08/19 11:04:57;;;;;;;9.25;8.45;;;;;;;31.02;100.00;99603.41;5093175;28;20201;-80
2023/08/19 11:07:27;;;;;;;10.35;9.40;;;;;;;30.43;100.00;99604.09;5088585;28;20185;-81
2023/08/19 11:09:54;;;;;;;9.40;8.52;;;;;;;30.67;100.00;99603.22;5082948;28;20222;-81
2023/08/19 11:12:23;;;;;;;9.98;9.18;;;;;;;29.82;100.00;99597.13;5092114;28;20213;-81
2023/08/19 11:14:52;;;;;;;9.80;9.10;;;;;;;29.60;100.00;99599.22;5076914;28;20192;-81
2023/08/19 11:17:27;;;;;;;9.75;9.00;;;;;;;29.42;100.00;99597.84;5091591;28;20654;-82
2023/08/19 11:19:58;;;;;;;9.82;9.02;;;;;;;29.58;100.00;99593.22;5092515;28;20235;-81